sensor_id;sensor_type;location;lat;lon;timestamp;pressure;altitude;pressure_sealevel;temperature;humidity
58243;BME280;50118;53.232;8.252;2022-08-03T00:00:17;101365.19;;;17.55;100.00
58243;BME280;50118;53.232;8.252;2022-08-03T00:02:43;101363.28;;;17.64;100.00
58243;BME280;50118;53.232;8.252;2022-08-03T00:05:09;101362.47;;;17.63;100.00
58243;BME280;50118;53.232;8.252;2022-08-03T00:07:55;101361.00;;;17.52;100.00
58243;BME280;50118;53.232;8.252;2022-08-03T00:10:20;101356.97;;;17.48;100.00
58243;BME280;50118;53.232;8.252;2022-08-03T00:12:46;101357.47;;;17.52;100.00
58243;BME280;50118;53.232;8.252;2022-08-03T00:15:12;101362.84;;;17.52;100.00
58243;BME280;50118;53.232;8.252;2022-08-03T00:17:40;101358.53;;;17.43;100.00
58243;BME280;50118;53.232;8.252;2022-08-03T00:20:15;101358.38;;;17.36;100.00
58243;BME280;50118;53.232;8.252;2022-08-03T00:22:40;101356.03;;;17.33;100.00
58243;BME280;50118;53.232;8.252;2022-08-03T00:25:06;101358.72;;;17.33;100.00
58243;BME280;50118;53.232;8.252;2022-08-03T00:27:32;101368.69;;;17.24;100.00
58243;BME280;50118;53.232;8.252;2022-08-03T00:30:10;101362.47;;;17.24;100.00
58243;BME280;50118;53.232;8.252;2022-08-03T00:32:36;101368.19;;;17.21;100.00
58243;BME280;50118;53.232;8.252;2022-08-03T00:42:14;101364.56;;;17.05;100.00
58243;BME280;50118;53.232;8.252;2022-08-03T00:48:33;101366.25;;;17.06;100.00
58243;BME280;50118;53.232;8.252;2022-08-03T00:50:59;101367.59;;;16.94;100.00
58243;BME280;50118;53.232;8.252;2022-08-03T01:00:09;101363.25;;;16.85;100.00
58243;BME280;50118;53.232;8.252;2022-08-03T01:02:36;101359.00;;;16.82;100.00
58243;BME280;50118;53.232;8.252;2022-08-03T01:05:14;101356.53;;;16.80;100.00
58243;BME280;50118;53.232;8.252;2022-08-03T01:16:39;101349.63;;;16.70;100.00
58243;BME280;50118;53.232;8.252;2022-08-03T01:31:07;101347.66;;;16.55;100.00
58243;BME280;50118;53.232;8.252;2022-08-03T01:33:55;101343.09;;;16.56;100.00
58243;BME280;50118;53.232;8.252;2022-08-03T01:36:23;101343.97;;;16.48;100.00
58243;BME280;50118;53.232;8.252;2022-08-03T01:41:58;101357.25;;;16.41;100.00
58243;BME280;50118;53.232;8.252;2022-08-03T01:44:44;101355.88;;;16.37;100.00
58243;BME280;50118;53.232;8.252;2022-08-03T01:47:14;101356.22;;;16.34;100.00
58243;BME280;50118;53.232;8.252;2022-08-03T01:49:42;101347.66;;;16.31;100.00
58243;BME280;50118;53.232;8.252;2022-08-03T01:56:04;101339.75;;;16.29;100.00
58243;BME280;50118;53.232;8.252;2022-08-03T01:58:07;101336.06;;;16.30;100.00
58243;BME280;50118;53.232;8.252;2022-08-03T02:01:20;101329.34;;;16.26;100.00
58243;BME280;50118;53.232;8.252;2022-08-03T02:03:33;101332.03;;;16.18;100.00
58243;BME280;50118;53.232;8.252;2022-08-03T02:06:28;101326.13;;;16.22;100.00
58243;BME280;50118;53.232;8.252;2022-08-03T02:08:53;101334.72;;;16.18;100.00
58243;BME280;50118;53.232;8.252;2022-08-03T02:11:30;101326.66;;;16.18;100.00
58243;BME280;50118;53.232;8.252;2022-08-03T02:13:58;101326.66;;;16.10;100.00
58243;BME280;50118;53.232;8.252;2022-08-03T02:19:42;101328.66;;;16.08;100.00
58243;BME280;50118;53.232;8.252;2022-08-03T02:22:12;101325.97;;;15.99;100.00
58243;BME280;50118;53.232;8.252;2022-08-03T02:24:39;101329.66;;;15.98;100.00
58243;BME280;50118;53.232;8.252;2022-08-03T02:27:19;101324.94;;;16.00;100.00
58243;BME280;50118;53.232;8.252;2022-08-03T02:30:13;101322.94;;;15.94;100.00
58243;BME280;50118;53.232;8.252;2022-08-03T02:32:39;101326.94;;;15.90;100.00
58243;BME280;50118;53.232;8.252;2022-08-03T02:35:10;101323.28;;;15.91;100.00
58243;BME280;50118;53.232;8.252;2022-08-03T02:38:01;101326.28;;;15.88;100.00
58243;BME280;50118;53.232;8.252;2022-08-03T02:43:45;101310.50;;;15.77;100.00
58243;BME280;50118;53.232;8.252;2022-08-03T02:46:13;101316.53;;;15.79;100.00
58243;BME280;50118;53.232;8.252;2022-08-03T02:48:42;101311.84;;;15.81;100.00
58243;BME280;50118;53.232;8.252;2022-08-03T02:51:19;101313.88;;;15.87;100.00
58243;BME280;50118;53.232;8.252;2022-08-03T02:53:47;101313.53;;;15.82;100.00
58243;BME280;50118;53.232;8.252;2022-08-03T02:56:14;101313.34;;;15.75;100.00
58243;BME280;50118;53.232;8.252;2022-08-03T02:58:42;101307.81;;;15.77;100.00
58243;BME280;50118;53.232;8.252;2022-08-03T03:01:13;101319.03;;;15.72;100.00
58243;BME280;50118;53.232;8.252;2022-08-03T03:03:45;101307.09;;;15.75;100.00
58243;BME280;50118;53.232;8.252;2022-08-03T03:06:32;101302.25;;;15.70;100.00
58243;BME280;50118;53.232;8.252;2022-08-03T03:09:10;101318.50;;;15.68;100.00
58243;BME280;50118;53.232;8.252;2022-08-03T03:11:39;101312.47;;;15.66;100.00
58243;BME280;50118;53.232;8.252;2022-08-03T03:14:06;101314.09;;;15.59;100.00
58243;BME280;50118;53.232;8.252;2022-08-03T03:16:34;101307.41;;;15.55;100.00
58243;BME280;50118;53.232;8.252;2022-08-03T03:19:01;101314.28;;;15.49;100.00
58243;BME280;50118;53.232;8.252;2022-08-03T03:21:28;101312.59;;;15.48;100.00
58243;BME280;50118;53.232;8.252;2022-08-03T03:23:54;101318.47;;;15.52;100.00
58243;BME280;50118;53.232;8.252;2022-08-03T03:26:20;101307.06;;;15.50;100.00
58243;BME280;50118;53.232;8.252;2022-08-03T03:31:58;101308.38;;;15.46;100.00
58243;BME280;50118;53.232;8.252;2022-08-03T03:34:25;101310.06;;;15.47;100.00
58243;BME280;50118;53.232;8.252;2022-08-03T03:37:03;101308.38;;;15.46;100.00
58243;BME280;50118;53.232;8.252;2022-08-03T03:39:44;101313.56;;;15.47;100.00
58243;BME280;50118;53.232;8.252;2022-08-03T03:42:10;101303.69;;;15.48;100.00
58243;BME280;50118;53.232;8.252;2022-08-03T03:44:35;101301.34;;;15.45;100.00
58243;BME280;50118;53.232;8.252;2022-08-03T03:47:01;101300.16;;;15.47;100.00
58243;BME280;50118;53.232;8.252;2022-08-03T03:49:27;101297.63;;;15.46;100.00
58243;BME280;50118;53.232;8.252;2022-08-03T03:51:54;101296.28;;;15.42;100.00
58243;BME280;50118;53.232;8.252;2022-08-03T03:54:20;101295.97;;;15.45;100.00
58243;BME280;50118;53.232;8.252;2022-08-03T03:56:45;101296.28;;;15.42;100.00
58243;BME280;50118;53.232;8.252;2022-08-03T04:02:26;101292.59;;;15.43;100.00
58243;BME280;50118;53.232;8.252;2022-08-03T04:04:52;101293.44;;;15.43;100.00
58243;BME280;50118;53.232;8.252;2022-08-03T04:07:55;101292.44;;;15.44;100.00
58243;BME280;50118;53.232;8.252;2022-08-03T04:10:42;101289.41;;;15.47;100.00
58243;BME280;50118;53.232;8.252;2022-08-03T04:13:50;101295.47;;;15.49;100.00
58243;BME280;50118;53.232;8.252;2022-08-03T04:16:18;101289.44;;;15.56;100.00
58243;BME280;50118;53.232;8.252;2022-08-03T04:19:25;101293.66;;;15.58;100.00
58243;BME280;50118;53.232;8.252;2022-08-03T04:21:57;101291.47;;;15.62;100.00
58243;BME280;50118;53.232;8.252;2022-08-03T04:24:32;101289.47;;;15.64;100.00
58243;BME280;50118;53.232;8.252;2022-08-03T04:27:02;101296.53;;;15.65;100.00
58243;BME280;50118;53.232;8.252;2022-08-03T04:29:39;101296.50;;;15.73;100.00
58243;BME280;50118;53.232;8.252;2022-08-03T04:32:22;101296.72;;;15.80;100.00
58243;BME280;50118;53.232;8.252;2022-08-03T04:35:17;101299.91;;;15.92;100.00
58243;BME280;50118;53.232;8.252;2022-08-03T04:37:47;101310.53;;;16.10;100.00
58243;BME280;50118;53.232;8.252;2022-08-03T04:40:26;101295.06;;;16.36;100.00
58243;BME280;50118;53.232;8.252;2022-08-03T04:49:29;101302.25;;;18.93;100.00
58243;BME280;50118;53.232;8.252;2022-08-03T04:51:55;101291.91;;;19.63;94.33
58243;BME280;50118;53.232;8.252;2022-08-03T04:54:21;101299.22;;;20.34;87.47
58243;BME280;50118;53.232;8.252;2022-08-03T04:56:46;101294.97;;;21.16;84.79
58243;BME280;50118;53.232;8.252;2022-08-03T04:59:12;101299.75;;;21.76;79.40
58243;BME280;50118;53.232;8.252;2022-08-03T05:01:40;101290.22;;;21.93;76.19
58243;BME280;50118;53.232;8.252;2022-08-03T05:04:08;101293.88;;;21.52;77.81
58243;BME280;50118;53.232;8.252;2022-08-03T05:06:34;101297.13;;;21.34;80.15
58243;BME280;50118;53.232;8.252;2022-08-03T05:08:59;101300.81;;;21.13;80.00
58243;BME280;50118;53.232;8.252;2022-08-03T05:11:25;101298.38;;;20.62;83.12
58243;BME280;50118;53.232;8.252;2022-08-03T05:13:50;101304.53;;;20.21;88.09
58243;BME280;50118;53.232;8.252;2022-08-03T05:16:16;101295.94;;;20.67;85.37
58243;BME280;50118;53.232;8.252;2022-08-03T05:18:42;101302.06;;;21.17;82.04
58243;BME280;50118;53.232;8.252;2022-08-03T05:21:08;101294.16;;;21.97;75.94
58243;BME280;50118;53.232;8.252;2022-08-03T05:23:34;101297.81;;;22.97;72.37
58243;BME280;50118;53.232;8.252;2022-08-03T05:26:00;101290.50;;;23.94;68.02
58243;BME280;50118;53.232;8.252;2022-08-03T05:28:26;101291.97;;;24.84;63.32
58243;BME280;50118;53.232;8.252;2022-08-03T05:30:51;101284.03;;;25.50;61.17
58243;BME280;50118;53.232;8.252;2022-08-03T05:33:17;101294.25;;;25.85;59.53
58243;BME280;50118;53.232;8.252;2022-08-03T05:35:42;101300.38;;;26.22;57.62
58243;BME280;50118;53.232;8.252;2022-08-03T05:38:08;101297.53;;;26.05;57.04
58243;BME280;50118;53.232;8.252;2022-08-03T05:40:33;101299.78;;;26.79;55.73
58243;BME280;50118;53.232;8.252;2022-08-03T05:42:59;101305.25;;;26.79;54.33
58243;BME280;50118;53.232;8.252;2022-08-03T05:45:25;101305.22;;;27.03;54.79
58243;BME280;50118;53.232;8.252;2022-08-03T05:47:51;101302.63;;;27.66;53.18
58243;BME280;50118;53.232;8.252;2022-08-03T05:50:17;101300.84;;;27.88;51.24
58243;BME280;50118;53.232;8.252;2022-08-03T05:52:44;101300.59;;;27.44;52.44
58243;BME280;50118;53.232;8.252;2022-08-03T05:55:10;101303.06;;;27.05;54.70
58243;BME280;50118;53.232;8.252;2022-08-03T05:57:37;101310.81;;;26.49;55.58
58243;BME280;50118;53.232;8.252;2022-08-03T06:00:08;101299.41;;;26.28;57.86
58243;BME280;50118;53.232;8.252;2022-08-03T06:02:34;101303.75;;;25.33;60.06
58243;BME280;50118;53.232;8.252;2022-08-03T06:05:00;101308.16;;;24.79;62.98
58243;BME280;50118;53.232;8.252;2022-08-03T06:07:26;101309.69;;;24.50;64.21
58243;BME280;50118;53.232;8.252;2022-08-03T06:09:52;101313.34;;;23.86;67.87
58243;BME280;50118;53.232;8.252;2022-08-03T06:12:17;101308.41;;;23.31;70.28
58243;BME280;50118;53.232;8.252;2022-08-03T06:14:43;101309.19;;;22.73;75.54
58243;BME280;50118;53.232;8.252;2022-08-03T06:17:08;101315.03;;;22.77;75.26
58243;BME280;50118;53.232;8.252;2022-08-03T06:19:34;101313.22;;;22.44;77.65
58243;BME280;50118;53.232;8.252;2022-08-03T06:21:59;101320.91;;;22.54;78.09
58243;BME280;50118;53.232;8.252;2022-08-03T06:24:25;101319.88;;;22.35;78.87
58243;BME280;50118;53.232;8.252;2022-08-03T06:26:50;101320.91;;;22.27;79.73
58243;BME280;50118;53.232;8.252;2022-08-03T06:29:16;101319.63;;;21.96;82.02
58243;BME280;50118;53.232;8.252;2022-08-03T06:31:41;101316.91;;;21.96;83.19
58243;BME280;50118;53.232;8.252;2022-08-03T06:34:06;101322.53;;;22.15;82.56
58243;BME280;50118;53.232;8.252;2022-08-03T06:36:32;101320.44;;;22.84;79.30
58243;BME280;50118;53.232;8.252;2022-08-03T06:39:00;101327.03;;;23.28;76.36
58243;BME280;50118;53.232;8.252;2022-08-03T06:41:26;101324.13;;;23.23;76.01
58243;BME280;50118;53.232;8.252;2022-08-03T06:43:52;101326.03;;;23.16;75.90
58243;BME280;50118;53.232;8.252;2022-08-03T06:46:20;101321.03;;;22.99;77.36
58243;BME280;50118;53.232;8.252;2022-08-03T06:48:46;101325.63;;;22.99;78.77
58243;BME280;50118;53.232;8.252;2022-08-03T06:51:12;101325.28;;;22.75;79.30
58243;BME280;50118;53.232;8.252;2022-08-03T06:53:38;101321.28;;;22.78;80.42
58243;BME280;50118;53.232;8.252;2022-08-03T06:56:04;101322.97;;;22.72;80.93
58243;BME280;50118;53.232;8.252;2022-08-03T06:58:30;101325.19;;;22.95;81.35
58243;BME280;50118;53.232;8.252;2022-08-03T07:00:58;101321.34;;;23.36;78.14
58243;BME280;50118;53.232;8.252;2022-08-03T07:03:36;101325.50;;;23.39;76.00
58243;BME280;50118;53.232;8.252;2022-08-03T07:06:01;101328.31;;;23.05;77.78
58243;BME280;50118;53.232;8.252;2022-08-03T07:08:27;101332.09;;;23.04;78.22
58243;BME280;50118;53.232;8.252;2022-08-03T07:11:01;101335.31;;;22.61;80.51
58243;BME280;50118;53.232;8.252;2022-08-03T07:13:27;101343.00;;;22.78;80.83
58243;BME280;50118;53.232;8.252;2022-08-03T07:15:53;101338.84;;;22.82;80.09
58243;BME280;50118;53.232;8.252;2022-08-03T07:18:18;101352.84;;;22.72;80.55
58243;BME280;50118;53.232;8.252;2022-08-03T07:20:43;101344.28;;;22.62;81.18
58243;BME280;50118;53.232;8.252;2022-08-03T07:23:09;101334.47;;;22.47;81.70
58243;BME280;50118;53.232;8.252;2022-08-03T07:25:34;101345.13;;;22.49;81.83
58243;BME280;50118;53.232;8.252;2022-08-03T07:28:00;101341.16;;;22.45;82.98
58243;BME280;50118;53.232;8.252;2022-08-03T07:30:25;101343.28;;;22.49;82.83
58243;BME280;50118;53.232;8.252;2022-08-03T07:33:00;101341.16;;;22.58;83.30
58243;BME280;50118;53.232;8.252;2022-08-03T07:35:25;101345.78;;;22.51;82.68
58243;BME280;50118;53.232;8.252;2022-08-03T07:37:52;101339.28;;;22.52;82.46
58243;BME280;50118;53.232;8.252;2022-08-03T07:40:21;101343.22;;;22.76;82.07
58243;BME280;50118;53.232;8.252;2022-08-03T07:42:47;101346.94;;;22.95;81.70
58243;BME280;50118;53.232;8.252;2022-08-03T07:45:12;101337.34;;;22.99;81.14
58243;BME280;50118;53.232;8.252;2022-08-03T07:47:38;101337.31;;;23.19;81.28
58243;BME280;50118;53.232;8.252;2022-08-03T07:50:06;101339.31;;;23.37;79.62
58243;BME280;50118;53.232;8.252;2022-08-03T07:52:32;101345.50;;;23.51;78.97
58243;BME280;50118;53.232;8.252;2022-08-03T07:55:13;101346.38;;;23.52;76.28
58243;BME280;50118;53.232;8.252;2022-08-03T07:57:39;101343.06;;;23.43;76.52
58243;BME280;50118;53.232;8.252;2022-08-03T08:00:06;101345.63;;;23.31;76.29
58243;BME280;50118;53.232;8.252;2022-08-03T08:02:35;101350.19;;;23.37;75.55
58243;BME280;50118;53.232;8.252;2022-08-03T08:05:00;101343.66;;;23.52;75.78
58243;BME280;50118;53.232;8.252;2022-08-03T08:07:26;101343.56;;;23.65;75.98
58243;BME280;50118;53.232;8.252;2022-08-03T08:09:51;101342.47;;;23.73;74.90
58243;BME280;50118;53.232;8.252;2022-08-03T08:12:17;101337.81;;;23.86;74.52
58243;BME280;50118;53.232;8.252;2022-08-03T08:14:42;101339.75;;;24.11;74.25
58243;BME280;50118;53.232;8.252;2022-08-03T08:17:11;101332.72;;;24.29;72.48
58243;BME280;50118;53.232;8.252;2022-08-03T08:19:36;101336.75;;;24.45;71.52
58243;BME280;50118;53.232;8.252;2022-08-03T08:22:01;101337.59;;;24.70;71.34
58243;BME280;50118;53.232;8.252;2022-08-03T08:24:27;101327.94;;;24.93;71.25
58243;BME280;50118;53.232;8.252;2022-08-03T08:26:55;101336.69;;;24.76;68.41
58243;BME280;50118;53.232;8.252;2022-08-03T08:29:20;101342.81;;;24.72;68.79
58243;BME280;50118;53.232;8.252;2022-08-03T08:31:48;101332.66;;;24.79;68.79
58243;BME280;50118;53.232;8.252;2022-08-03T08:34:16;101329.28;;;25.02;67.89
58243;BME280;50118;53.232;8.252;2022-08-03T08:36:42;101334.38;;;24.98;67.52
58243;BME280;50118;53.232;8.252;2022-08-03T08:39:08;101330.13;;;25.03;68.02
58243;BME280;50118;53.232;8.252;2022-08-03T08:41:33;101326.19;;;25.17;65.79
58243;BME280;50118;53.232;8.252;2022-08-03T08:43:59;101326.66;;;25.32;65.83
58243;BME280;50118;53.232;8.252;2022-08-03T08:46:25;101332.63;;;25.41;67.64
58243;BME280;50118;53.232;8.252;2022-08-03T08:48:52;101330.69;;;25.60;66.28
58243;BME280;50118;53.232;8.252;2022-08-03T08:51:19;101329.53;;;25.68;64.35
58243;BME280;50118;53.232;8.252;2022-08-03T08:53:50;101329.03;;;25.59;64.30
58243;BME280;50118;53.232;8.252;2022-08-03T08:56:16;101327.31;;;25.77;64.00
58243;BME280;50118;53.232;8.252;2022-08-03T08:58:47;101333.69;;;26.01;63.75
58243;BME280;50118;53.232;8.252;2022-08-03T09:01:13;101337.72;;;25.98;63.92
58243;BME280;50118;53.232;8.252;2022-08-03T09:03:38;101328.97;;;26.20;61.79
58243;BME280;50118;53.232;8.252;2022-08-03T09:06:05;101332.91;;;26.47;61.82
58243;BME280;50118;53.232;8.252;2022-08-03T09:08:31;101340.75;;;26.44;61.62
58243;BME280;50118;53.232;8.252;2022-08-03T09:10:58;101326.78;;;26.64;62.51
58243;BME280;50118;53.232;8.252;2022-08-03T09:13:23;101326.72;;;26.99;61.33
58243;BME280;50118;53.232;8.252;2022-08-03T09:16:11;101323.75;;;27.01;60.98
58243;BME280;50118;53.232;8.252;2022-08-03T09:18:37;101326.41;;;27.48;59.16
58243;BME280;50118;53.232;8.252;2022-08-03T09:21:14;101324.06;;;27.86;56.48
58243;BME280;50118;53.232;8.252;2022-08-03T09:23:44;101322.41;;;27.85;57.38
58243;BME280;50118;53.232;8.252;2022-08-03T09:26:10;101318.97;;;28.06;55.83
58243;BME280;50118;53.232;8.252;2022-08-03T09:28:35;101321.00;;;28.50;54.59
58243;BME280;50118;53.232;8.252;2022-08-03T09:31:01;101318.59;;;28.54;54.88
58243;BME280;50118;53.232;8.252;2022-08-03T09:33:27;101314.28;;;28.75;53.39
58243;BME280;50118;53.232;8.252;2022-08-03T09:35:52;101323.13;;;29.21;51.79
58243;BME280;50118;53.232;8.252;2022-08-03T09:38:22;101315.56;;;29.33;49.83
58243;BME280;50118;53.232;8.252;2022-08-03T09:40:51;101318.19;;;29.72;48.70
58243;BME280;50118;53.232;8.252;2022-08-03T09:43:17;101318.59;;;29.59;49.01
58243;BME280;50118;53.232;8.252;2022-08-03T09:45:43;101317.56;;;29.65;47.49
58243;BME280;50118;53.232;8.252;2022-08-03T09:48:27;101307.38;;;29.88;48.24
58243;BME280;50118;53.232;8.252;2022-08-03T09:50:58;101316.00;;;29.74;49.51
58243;BME280;50118;53.232;8.252;2022-08-03T09:53:24;101305.63;;;29.76;49.29
58243;BME280;50118;53.232;8.252;2022-08-03T09:55:57;101305.03;;;30.39;47.23
58243;BME280;50118;53.232;8.252;2022-08-03T09:58:24;101294.44;;;30.15;46.76
58243;BME280;50118;53.232;8.252;2022-08-03T10:01:02;101293.72;;;29.98;47.55
58243;BME280;50118;53.232;8.252;2022-08-03T10:03:30;101302.44;;;30.65;47.00
58243;BME280;50118;53.232;8.252;2022-08-03T10:05:56;101297.22;;;30.58;46.95
58243;BME280;50118;53.232;8.252;2022-08-03T10:08:22;101303.97;;;30.40;47.76
58243;BME280;50118;53.232;8.252;2022-08-03T10:10:49;101303.31;;;30.28;46.33
58243;BME280;50118;53.232;8.252;2022-08-03T10:13:17;101294.25;;;30.70;44.83
58243;BME280;50118;53.232;8.252;2022-08-03T10:15:42;101307.88;;;30.54;45.86
58243;BME280;50118;53.232;8.252;2022-08-03T10:18:08;101303.84;;;31.31;42.52
58243;BME280;50118;53.232;8.252;2022-08-03T10:20:41;101298.44;;;31.56;42.13
58243;BME280;50118;53.232;8.252;2022-08-03T10:23:08;101300.59;;;31.49;41.72
58243;BME280;50118;53.232;8.252;2022-08-03T10:25:37;101303.81;;;31.20;42.32
58243;BME280;50118;53.232;8.252;2022-08-03T10:28:04;101302.53;;;31.49;41.32
58243;BME280;50118;53.232;8.252;2022-08-03T10:30:31;101308.91;;;31.54;41.22
58243;BME280;50118;53.232;8.252;2022-08-03T10:33:16;101301.41;;;31.44;40.29
58243;BME280;50118;53.232;8.252;2022-08-03T10:35:43;101300.66;;;31.59;40.96
58243;BME280;50118;53.232;8.252;2022-08-03T10:38:11;101300.13;;;31.83;40.45
58243;BME280;50118;53.232;8.252;2022-08-03T10:40:40;101298.19;;;32.30;41.06
58243;BME280;50118;53.232;8.252;2022-08-03T10:43:09;101286.81;;;32.57;39.80
58243;BME280;50118;53.232;8.252;2022-08-03T10:45:40;101282.28;;;33.02;39.43
58243;BME280;50118;53.232;8.252;2022-08-03T10:48:06;101286.06;;;32.05;40.68
58243;BME280;50118;53.232;8.252;2022-08-03T10:50:32;101278.34;;;32.28;39.70
58243;BME280;50118;53.232;8.252;2022-08-03T10:53:02;101283.03;;;32.01;39.38
58243;BME280;50118;53.232;8.252;2022-08-03T10:55:45;101283.59;;;31.73;39.75
58243;BME280;50118;53.232;8.252;2022-08-03T11:01:09;101286.91;;;32.06;41.84
58243;BME280;50118;53.232;8.252;2022-08-03T11:04:13;101280.84;;;31.98;39.96
58243;BME280;50118;53.232;8.252;2022-08-03T11:06:39;101271.94;;;32.58;39.16
58243;BME280;50118;53.232;8.252;2022-08-03T11:09:17;101286.66;;;33.08;38.85
58243;BME280;50118;53.232;8.252;2022-08-03T11:11:45;101272.94;;;32.88;37.99
58243;BME280;50118;53.232;8.252;2022-08-03T11:14:19;101283.47;;;32.75;38.16
58243;BME280;50118;53.232;8.252;2022-08-03T11:16:47;101275.91;;;32.06;37.79
58243;BME280;50118;53.232;8.252;2022-08-03T11:19:18;101275.34;;;32.14;38.87
58243;BME280;50118;53.232;8.252;2022-08-03T11:35:30;101266.91;;;33.80;34.02
58243;BME280;50118;53.232;8.252;2022-08-03T11:40:43;101275.38;;;33.00;35.99
58243;BME280;50118;53.232;8.252;2022-08-03T11:46:19;101269.47;;;32.56;37.05
58243;BME280;50118;53.232;8.252;2022-08-03T11:48:49;101271.63;;;32.75;37.50
58243;BME280;50118;53.232;8.252;2022-08-03T11:51:28;101271.16;;;32.47;36.93
58243;BME280;50118;53.232;8.252;2022-08-03T11:53:59;101272.44;;;32.81;36.46
58243;BME280;50118;53.232;8.252;2022-08-03T11:56:25;101270.28;;;32.62;37.09
58243;BME280;50118;53.232;8.252;2022-08-03T11:58:53;101267.03;;;32.34;37.60
58243;BME280;50118;53.232;8.252;2022-08-03T12:01:20;101264.25;;;32.39;37.34
58243;BME280;50118;53.232;8.252;2022-08-03T12:03:46;101261.47;;;32.50;37.97
58243;BME280;50118;53.232;8.252;2022-08-03T12:06:14;101264.63;;;32.98;37.00
58243;BME280;50118;53.232;8.252;2022-08-03T12:08:40;101253.22;;;33.60;35.93
58243;BME280;50118;53.232;8.252;2022-08-03T12:11:08;101263.06;;;32.76;36.96
58243;BME280;50118;53.232;8.252;2022-08-03T12:16:03;101256.81;;;33.21;37.07
58243;BME280;50118;53.232;8.252;2022-08-03T12:18:28;101261.53;;;33.15;37.29
58243;BME280;50118;53.232;8.252;2022-08-03T12:21:04;101263.97;;;32.46;36.95
58243;BME280;50118;53.232;8.252;2022-08-03T12:23:30;101256.50;;;33.27;36.27
58243;BME280;50118;53.232;8.252;2022-08-03T12:26:00;101255.47;;;33.08;34.13
58243;BME280;50118;53.232;8.252;2022-08-03T12:28:26;101246.94;;;33.49;33.79
58243;BME280;50118;53.232;8.252;2022-08-03T12:30:52;101249.66;;;33.54;34.17
58243;BME280;50118;53.232;8.252;2022-08-03T12:33:25;101245.91;;;33.79;33.53
58243;BME280;50118;53.232;8.252;2022-08-03T12:38:29;101258.00;;;33.49;35.44
58243;BME280;50118;53.232;8.252;2022-08-03T12:41:06;101253.31;;;33.49;35.36
58243;BME280;50118;53.232;8.252;2022-08-03T12:43:33;101251.25;;;34.00;35.05
58243;BME280;50118;53.232;8.252;2022-08-03T12:46:13;101254.84;;;34.30;32.51
58243;BME280;50118;53.232;8.252;2022-08-03T12:49:17;101258.03;;;32.94;35.70
58243;BME280;50118;53.232;8.252;2022-08-03T12:54:22;101246.94;;;33.04;35.30
58243;BME280;50118;53.232;8.252;2022-08-03T12:57:08;101251.50;;;32.80;35.94
58243;BME280;50118;53.232;8.252;2022-08-03T12:59:37;101239.53;;;33.44;35.94
58243;BME280;50118;53.232;8.252;2022-08-03T13:02:22;101230.91;;;33.56;34.37
58243;BME280;50118;53.232;8.252;2022-08-03T13:04:49;101237.53;;;33.16;35.67
58243;BME280;50118;53.232;8.252;2022-08-03T13:07:16;101239.84;;;34.06;34.26
58243;BME280;50118;53.232;8.252;2022-08-03T13:09:47;101240.38;;;34.38;32.76
58243;BME280;50118;53.232;8.252;2022-08-03T13:12:20;101243.56;;;34.50;33.75
58243;BME280;50118;53.232;8.252;2022-08-03T13:14:47;101236.78;;;34.08;33.59
58243;BME280;50118;53.232;8.252;2022-08-03T13:17:13;101237.66;;;34.81;33.29
58243;BME280;50118;53.232;8.252;2022-08-03T13:19:41;101239.25;;;34.87;33.02
58243;BME280;50118;53.232;8.252;2022-08-03T13:22:21;101246.25;;;34.55;31.35
58243;BME280;50118;53.232;8.252;2022-08-03T13:24:49;101230.06;;;34.68;31.62
58243;BME280;50118;53.232;8.252;2022-08-03T13:27:15;101232.38;;;34.60;32.93
58243;BME280;50118;53.232;8.252;2022-08-03T13:29:40;101229.50;;;34.17;33.22
58243;BME280;50118;53.232;8.252;2022-08-03T13:32:09;101234.09;;;34.03;33.07
58243;BME280;50118;53.232;8.252;2022-08-03T13:34:36;101240.69;;;33.38;33.27
58243;BME280;50118;53.232;8.252;2022-08-03T13:37:02;101226.47;;;33.90;33.69
58243;BME280;50118;53.232;8.252;2022-08-03T13:39:27;101238.84;;;34.27;33.03
58243;BME280;50118;53.232;8.252;2022-08-03T13:41:53;101230.63;;;34.16;32.25
58243;BME280;50118;53.232;8.252;2022-08-03T13:44:18;101228.94;;;33.57;32.95
58243;BME280;50118;53.232;8.252;2022-08-03T13:46:45;101222.75;;;33.75;35.04
58243;BME280;50118;53.232;8.252;2022-08-03T13:49:10;101235.56;;;33.56;33.23
58243;BME280;50118;53.232;8.252;2022-08-03T13:51:36;101223.91;;;32.80;35.07
58243;BME280;50118;53.232;8.252;2022-08-03T13:54:02;101232.63;;;32.06;35.37
58243;BME280;50118;53.232;8.252;2022-08-03T13:56:28;101231.53;;;31.81;36.45
58243;BME280;50118;53.232;8.252;2022-08-03T13:58:55;101229.28;;;32.25;35.10
58243;BME280;50118;53.232;8.252;2022-08-03T14:01:21;101226.53;;;32.30;34.60
58243;BME280;50118;53.232;8.252;2022-08-03T14:03:47;101223.66;;;32.76;33.68
58243;BME280;50118;53.232;8.252;2022-08-03T14:06:17;101223.72;;;32.45;33.44
58243;BME280;50118;53.232;8.252;2022-08-03T14:08:43;101222.38;;;33.03;33.19
58243;BME280;50118;53.232;8.252;2022-08-03T14:11:09;101223.44;;;33.12;32.77
58243;BME280;50118;53.232;8.252;2022-08-03T14:13:34;101225.34;;;33.17;32.79
58243;BME280;50118;53.232;8.252;2022-08-03T14:16:00;101215.38;;;33.26;32.21
58243;BME280;50118;53.232;8.252;2022-08-03T14:18:25;101221.06;;;32.95;31.88
58243;BME280;50118;53.232;8.252;2022-08-03T14:20:51;101216.50;;;33.20;32.93
58243;BME280;50118;53.232;8.252;2022-08-03T14:23:16;101224.41;;;32.87;32.41
58243;BME280;50118;53.232;8.252;2022-08-03T14:25:42;101217.09;;;33.11;32.90
58243;BME280;50118;53.232;8.252;2022-08-03T14:28:08;101221.38;;;32.88;33.69
58243;BME280;50118;53.232;8.252;2022-08-03T14:30:33;101221.56;;;33.02;32.99
58243;BME280;50118;53.232;8.252;2022-08-03T14:32:59;101222.75;;;32.86;33.56